sensor_id;sensor_type;location;lat;lon;timestamp;pressure;altitude;pressure_sealevel;temperature
80246;BMP280;69558;39.208;-77.226;2024-01-16T00:00:52;100664.03;;;14.10
80246;BMP280;69558;39.208;-77.226;2024-01-16T00:03:17;100666.78;;;14.09
80246;BMP280;69558;39.208;-77.226;2024-01-16T00:05:43;100667.59;;;14.09
80246;BMP280;69558;39.208;-77.226;2024-01-16T00:08:09;100663.38;;;14.08
80246;BMP280;69558;39.208;-77.226;2024-01-16T00:10:35;100665.31;;;14.06
80246;BMP280;69558;39.208;-77.226;2024-01-16T00:13:02;100668.72;;;14.07
80246;BMP280;69558;39.208;-77.226;2024-01-16T00:15:28;100663.66;;;14.05
80246;BMP280;69558;39.208;-77.226;2024-01-16T00:17:53;100657.75;;;14.03
80246;BMP280;69558;39.208;-77.226;2024-01-16T00:20:19;100660.34;;;14.03
80246;BMP280;69558;39.208;-77.226;2024-01-16T00:22:45;100659.53;;;14.02
80246;BMP280;69558;39.208;-77.226;2024-01-16T00:25:11;100658.75;;;14.02
80246;BMP280;69558;39.208;-77.226;2024-01-16T00:27:37;100658.44;;;14.05
80246;BMP280;69558;39.208;-77.226;2024-01-16T00:30:03;100650.75;;;14.03
80246;BMP280;69558;39.208;-77.226;2024-01-16T00:32:29;100651.56;;;14.04
80246;BMP280;69558;39.208;-77.226;2024-01-16T00:34:55;100655.84;;;14.05
80246;BMP280;69558;39.208;-77.226;2024-01-16T00:37:21;100666.13;;;14.07
80246;BMP280;69558;39.208;-77.226;2024-01-16T00:39:47;100665.41;;;14.04
80246;BMP280;69558;39.208;-77.226;2024-01-16T00:42:13;100666.28;;;14.05
80246;BMP280;69558;39.208;-77.226;2024-01-16T00:44:39;100677.00;;;14.02
80246;BMP280;69558;39.208;-77.226;2024-01-16T00:47:05;100672.56;;;14.02
80246;BMP280;69558;39.208;-77.226;2024-01-16T00:49:31;100674.59;;;14.09
80246;BMP280;69558;39.208;-77.226;2024-01-16T00:51:58;100675.03;;;14.04
80246;BMP280;69558;39.208;-77.226;2024-01-16T00:54:24;100668.94;;;13.95
80246;BMP280;69558;39.208;-77.226;2024-01-16T00:56:50;100673.97;;;13.97
80246;BMP280;69558;39.208;-77.226;2024-01-16T00:59:20;100671.09;;;14.00
80246;BMP280;69558;39.208;-77.226;2024-01-16T01:01:46;100666.16;;;13.97
80246;BMP280;69558;39.208;-77.226;2024-01-16T01:04:12;100674.22;;;14.03
80246;BMP280;69558;39.208;-77.226;2024-01-16T01:06:37;100669.81;;;14.04
80246;BMP280;69558;39.208;-77.226;2024-01-16T01:09:04;100661.06;;;14.05
80246;BMP280;69558;39.208;-77.226;2024-01-16T01:11:29;100651.44;;;14.06
80246;BMP280;69558;39.208;-77.226;2024-01-16T01:13:55;100655.53;;;14.08
80246;BMP280;69558;39.208;-77.226;2024-01-16T01:16:21;100653.59;;;14.10
80246;BMP280;69558;39.208;-77.226;2024-01-16T01:18:47;100650.84;;;14.12
80246;BMP280;69558;39.208;-77.226;2024-01-16T01:21:13;100645.13;;;14.08
80246;BMP280;69558;39.208;-77.226;2024-01-16T01:23:39;100638.78;;;14.11
80246;BMP280;69558;39.208;-77.226;2024-01-16T01:26:05;100637.13;;;14.10
80246;BMP280;69558;39.208;-77.226;2024-01-16T01:28:30;100624.09;;;14.10
80246;BMP280;69558;39.208;-77.226;2024-01-16T01:30:57;100637.13;;;14.10
80246;BMP280;69558;39.208;-77.226;2024-01-16T01:33:23;100640.56;;;14.10
80246;BMP280;69558;39.208;-77.226;2024-01-16T01:35:49;100637.13;;;14.10
80246;BMP280;69558;39.208;-77.226;2024-01-16T01:38:15;100630.25;;;14.09
80246;BMP280;69558;39.208;-77.226;2024-01-16T01:40:41;100624.91;;;14.10
80246;BMP280;69558;39.208;-77.226;2024-01-16T01:43:23;100632.16;;;14.16
80246;BMP280;69558;39.208;-77.226;2024-01-16T01:48:34;100651.13;;;14.09
80246;BMP280;69558;39.208;-77.226;2024-01-16T01:51:02;100646.72;;;14.09
80246;BMP280;69558;39.208;-77.226;2024-01-16T01:53:30;100644.00;;;14.11
80246;BMP280;69558;39.208;-77.226;2024-01-16T01:55:56;100630.84;;;14.02
80246;BMP280;69558;39.208;-77.226;2024-01-16T01:58:23;100631.47;;;14.14
80246;BMP280;69558;39.208;-77.226;2024-01-16T02:00:50;100626.94;;;14.16
80246;BMP280;69558;39.208;-77.226;2024-01-16T02:03:16;100631.03;;;14.19
80246;BMP280;69558;39.208;-77.226;2024-01-16T02:05:42;100642.44;;;14.18
80246;BMP280;69558;39.208;-77.226;2024-01-16T02:08:08;100644.06;;;14.19
80246;BMP280;69558;39.208;-77.226;2024-01-16T02:10:39;100642.31;;;14.19
80246;BMP280;69558;39.208;-77.226;2024-01-16T02:13:09;100639.38;;;14.22
80246;BMP280;69558;39.208;-77.226;2024-01-16T02:15:35;100632.53;;;14.21
80246;BMP280;69558;39.208;-77.226;2024-01-16T02:18:01;100643.94;;;14.20
80246;BMP280;69558;39.208;-77.226;2024-01-16T02:20:27;100643.13;;;14.20
80246;BMP280;69558;39.208;-77.226;2024-01-16T02:22:55;100642.31;;;14.19
80246;BMP280;69558;39.208;-77.226;2024-01-16T02:25:23;100636.25;;;14.19
80246;BMP280;69558;39.208;-77.226;2024-01-16T02:27:49;100621.72;;;14.16
80246;BMP280;69558;39.208;-77.226;2024-01-16T02:30:15;100609.47;;;14.17
80246;BMP280;69558;39.208;-77.226;2024-01-16T02:32:40;100604.25;;;14.17
80246;BMP280;69558;39.208;-77.226;2024-01-16T02:35:06;100577.50;;;14.15
80246;BMP280;69558;39.208;-77.226;2024-01-16T02:37:33;100575.72;;;14.15
80246;BMP280;69558;39.208;-77.226;2024-01-16T02:39:59;100580.28;;;14.13
80246;BMP280;69558;39.208;-77.226;2024-01-16T02:42:25;100586.97;;;14.16
80246;BMP280;69558;39.208;-77.226;2024-01-16T02:44:55;100577.66;;;14.13
80246;BMP280;69558;39.208;-77.226;2024-01-16T02:47:21;100578.47;;;14.14
80246;BMP280;69558;39.208;-77.226;2024-01-16T02:49:47;100598.69;;;14.12
80246;BMP280;69558;39.208;-77.226;2024-01-16T02:52:13;100587.88;;;14.07
80246;BMP280;69558;39.208;-77.226;2024-01-16T02:54:39;100593.47;;;14.12
80246;BMP280;69558;39.208;-77.226;2024-01-16T02:57:04;100583.53;;;14.15
80246;BMP280;69558;39.208;-77.226;2024-01-16T02:59:31;100576.53;;;14.16
80246;BMP280;69558;39.208;-77.226;2024-01-16T03:01:57;100573.13;;;14.15
80246;BMP280;69558;39.208;-77.226;2024-01-16T03:04:23;100576.25;;;14.19
80246;BMP280;69558;39.208;-77.226;2024-01-16T03:06:49;100573.63;;;14.19
80246;BMP280;69558;39.208;-77.226;2024-01-16T03:09:15;100557.69;;;14.22
80246;BMP280;69558;39.208;-77.226;2024-01-16T03:11:41;100548.06;;;14.22
80246;BMP280;69558;39.208;-77.226;2024-01-16T03:14:07;100528.00;;;14.23
80246;BMP280;69558;39.208;-77.226;2024-01-16T03:16:33;100521.69;;;14.25
80246;BMP280;69558;39.208;-77.226;2024-01-16T03:18:59;100506.88;;;14.26
80246;BMP280;69558;39.208;-77.226;2024-01-16T03:21:25;100498.03;;;14.27
80246;BMP280;69558;39.208;-77.226;2024-01-16T03:23:52;100502.97;;;14.30
80246;BMP280;69558;39.208;-77.226;2024-01-16T03:26:17;100501.19;;;14.30
80246;BMP280;69558;39.208;-77.226;2024-01-16T03:28:44;100495.00;;;14.31
80246;BMP280;69558;39.208;-77.226;2024-01-16T03:31:12;100473.94;;;14.33
80246;BMP280;69558;39.208;-77.226;2024-01-16T03:33:39;100468.59;;;14.34
80246;BMP280;69558;39.208;-77.226;2024-01-16T03:36:10;100472.03;;;14.35
80246;BMP280;69558;39.208;-77.226;2024-01-16T03:38:39;100470.22;;;14.36
80246;BMP280;69558;39.208;-77.226;2024-01-16T03:41:04;100465.69;;;14.38
80246;BMP280;69558;39.208;-77.226;2024-01-16T03:43:33;100451.69;;;14.39
80246;BMP280;69558;39.208;-77.226;2024-01-16T03:46:00;100444.94;;;14.36
80246;BMP280;69558;39.208;-77.226;2024-01-16T03:48:27;100452.94;;;14.34
80246;BMP280;69558;39.208;-77.226;2024-01-16T03:50:53;100449.50;;;14.34
80246;BMP280;69558;39.208;-77.226;2024-01-16T03:53:22;100440.84;;;14.33
80246;BMP280;69558;39.208;-77.226;2024-01-16T03:55:49;100441.84;;;14.32
80246;BMP280;69558;39.208;-77.226;2024-01-16T03:58:17;100434.16;;;14.31
80246;BMP280;69558;39.208;-77.226;2024-01-16T04:00:44;100445.56;;;14.30
80246;BMP280;69558;39.208;-77.226;2024-01-16T04:03:10;100437.88;;;14.28
80246;BMP280;69558;39.208;-77.226;2024-01-16T04:05:36;100430.38;;;14.25
80246;BMP280;69558;39.208;-77.226;2024-01-16T04:08:03;100427.06;;;14.23
80246;BMP280;69558;39.208;-77.226;2024-01-16T04:10:28;100422.81;;;14.22
80246;BMP280;69558;39.208;-77.226;2024-01-16T04:12:54;100413.38;;;14.21
80246;BMP280;69558;39.208;-77.226;2024-01-16T04:15:20;100409.78;;;14.22
80246;BMP280;69558;39.208;-77.226;2024-01-16T04:17:46;100391.69;;;14.21
80246;BMP280;69558;39.208;-77.226;2024-01-16T04:20:12;100398.25;;;14.25
80246;BMP280;69558;39.208;-77.226;2024-01-16T04:22:39;100393.03;;;14.25
80246;BMP280;69558;39.208;-77.226;2024-01-16T04:25:05;100396.59;;;14.24
80246;BMP280;69558;39.208;-77.226;2024-01-16T04:27:32;100404.91;;;14.27
80246;BMP280;69558;39.208;-77.226;2024-01-16T04:29:58;100403.94;;;14.28
80246;BMP280;69558;39.208;-77.226;2024-01-16T04:32:24;100393.38;;;14.30
80246;BMP280;69558;39.208;-77.226;2024-01-16T04:34:49;100378.72;;;14.29
80246;BMP280;69558;39.208;-77.226;2024-01-16T04:37:15;100371.00;;;14.27
80246;BMP280;69558;39.208;-77.226;2024-01-16T04:39:41;100367.41;;;14.28
80246;BMP280;69558;39.208;-77.226;2024-01-16T04:42:07;100376.22;;;14.27
80246;BMP280;69558;39.208;-77.226;2024-01-16T04:44:33;100367.41;;;14.20
80246;BMP280;69558;39.208;-77.226;2024-01-16T04:46:59;100377.72;;;14.30
80246;BMP280;69558;39.208;-77.226;2024-01-16T04:49:25;100379.53;;;14.29
80246;BMP280;69558;39.208;-77.226;2024-01-16T04:51:51;100354.72;;;14.25
80246;BMP280;69558;39.208;-77.226;2024-01-16T04:54:17;100376.44;;;14.34
80246;BMP280;69558;39.208;-77.226;2024-01-16T04:56:42;100362.59;;;14.33
80246;BMP280;69558;39.208;-77.226;2024-01-16T04:59:08;100352.97;;;14.34
80246;BMP280;69558;39.208;-77.226;2024-01-16T05:01:34;100341.38;;;14.37
80246;BMP280;69558;39.208;-77.226;2024-01-16T05:04:00;100343.84;;;14.38
80246;BMP280;69558;39.208;-77.226;2024-01-16T05:06:26;100346.44;;;14.38
80246;BMP280;69558;39.208;-77.226;2024-01-16T05:08:51;100349.72;;;14.40
80246;BMP280;69558;39.208;-77.226;2024-01-16T05:11:18;100346.97;;;14.42
80246;BMP280;69558;39.208;-77.226;2024-01-16T05:13:44;100345.31;;;14.41
80246;BMP280;69558;39.208;-77.226;2024-01-16T05:16:10;100339.13;;;14.42
80246;BMP280;69558;39.208;-77.226;2024-01-16T05:18:36;100325.09;;;14.43
80246;BMP280;69558;39.208;-77.226;2024-01-16T05:21:03;100324.78;;;14.46
80246;BMP280;69558;39.208;-77.226;2024-01-16T05:23:29;100315.50;;;14.43
80246;BMP280;69558;39.208;-77.226;2024-01-16T05:25:55;100322.66;;;14.41
80246;BMP280;69558;39.208;-77.226;2024-01-16T05:28:22;100334.59;;;14.44
80246;BMP280;69558;39.208;-77.226;2024-01-16T05:30:47;100344.69;;;14.47
80246;BMP280;69558;39.208;-77.226;2024-01-16T05:33:13;100347.00;;;14.50
80246;BMP280;69558;39.208;-77.226;2024-01-16T05:35:39;100338.66;;;14.46
80246;BMP280;69558;39.208;-77.226;2024-01-16T05:38:05;100329.38;;;14.52
80246;BMP280;69558;39.208;-77.226;2024-01-16T05:40:32;100298.88;;;14.52
80246;BMP280;69558;39.208;-77.226;2024-01-16T05:42:58;100297.91;;;14.53
80246;BMP280;69558;39.208;-77.226;2024-01-16T05:45:24;100291.72;;;14.54
80246;BMP280;69558;39.208;-77.226;2024-01-16T05:47:50;100294.34;;;14.54
80246;BMP280;69558;39.208;-77.226;2024-01-16T05:50:16;100293.34;;;14.55
80246;BMP280;69558;39.208;-77.226;2024-01-16T05:52:43;100288.97;;;14.56
80246;BMP280;69558;39.208;-77.226;2024-01-16T05:55:10;100285.22;;;14.58
80246;BMP280;69558;39.208;-77.226;2024-01-16T05:57:36;100276.56;;;14.58
80246;BMP280;69558;39.208;-77.226;2024-01-16T06:00:04;100278.19;;;14.59
80246;BMP280;69558;39.208;-77.226;2024-01-16T06:02:32;100266.28;;;14.56
80246;BMP280;69558;39.208;-77.226;2024-01-16T06:04:58;100254.38;;;14.54
80246;BMP280;69558;39.208;-77.226;2024-01-16T06:07:23;100274.28;;;14.55
80246;BMP280;69558;39.208;-77.226;2024-01-16T06:09:50;100259.59;;;14.54
80246;BMP280;69558;39.208;-77.226;2024-01-16T06:12:15;100273.75;;;14.51
80246;BMP280;69558;39.208;-77.226;2024-01-16T06:14:41;100274.75;;;14.50
80246;BMP280;69558;39.208;-77.226;2024-01-16T06:17:07;100266.28;;;14.48
80246;BMP280;69558;39.208;-77.226;2024-01-16T06:19:33;100260.56;;;14.45
80246;BMP280;69558;39.208;-77.226;2024-01-16T06:21:59;100229.53;;;14.42
80246;BMP280;69558;39.208;-77.226;2024-01-16T06:24:26;100233.09;;;14.41
80246;BMP280;69558;39.208;-77.226;2024-01-16T06:26:52;100230.00;;;14.37
80246;BMP280;69558;39.208;-77.226;2024-01-16T06:29:17;100222.19;;;14.37
80246;BMP280;69558;39.208;-77.226;2024-01-16T06:31:43;100200.47;;;14.37
80246;BMP280;69558;39.208;-77.226;2024-01-16T06:34:09;100205.19;;;14.33
80246;BMP280;69558;39.208;-77.226;2024-01-16T06:36:35;100200.66;;;14.35
80246;BMP280;69558;39.208;-77.226;2024-01-16T06:39:02;100210.59;;;14.31
80246;BMP280;69558;39.208;-77.226;2024-01-16T06:41:29;100210.59;;;14.31
80246;BMP280;69558;39.208;-77.226;2024-01-16T06:43:55;100197.53;;;14.31
80246;BMP280;69558;39.208;-77.226;2024-01-16T06:46:21;100207.66;;;14.34
80246;BMP280;69558;39.208;-77.226;2024-01-16T06:48:47;100192.97;;;14.33
80246;BMP280;69558;39.208;-77.226;2024-01-16T06:51:14;100187.28;;;14.38
80246;BMP280;69558;39.208;-77.226;2024-01-16T06:53:41;100187.28;;;14.38
80246;BMP280;69558;39.208;-77.226;2024-01-16T06:56:07;100181.09;;;14.39
80246;BMP280;69558;39.208;-77.226;2024-01-16T06:58:34;100188.91;;;14.39
80246;BMP280;69558;39.208;-77.226;2024-01-16T07:01:00;100215.50;;;14.43
80246;BMP280;69558;39.208;-77.226;2024-01-16T07:03:27;100210.16;;;14.44
80246;BMP280;69558;39.208;-77.226;2024-01-16T07:05:53;100214.34;;;14.45
80246;BMP280;69558;39.208;-77.226;2024-01-16T07:08:19;100201.84;;;14.49
80246;BMP280;69558;39.208;-77.226;2024-01-16T07:10:44;100186.00;;;14.50
80246;BMP280;69558;39.208;-77.226;2024-01-16T07:13:11;100164.31;;;14.50
80246;BMP280;69558;39.208;-77.226;2024-01-16T07:15:37;100154.03;;;14.48
80246;BMP280;69558;39.208;-77.226;2024-01-16T07:18:04;100144.41;;;14.49
80246;BMP280;69558;39.208;-77.226;2024-01-16T07:20:29;100122.25;;;14.45
80246;BMP280;69558;39.208;-77.226;2024-01-16T07:22:55;100129.22;;;14.52
80246;BMP280;69558;39.208;-77.226;2024-01-16T07:25:21;100135.13;;;14.54
80246;BMP280;69558;39.208;-77.226;2024-01-16T07:27:47;100134.16;;;14.55
80246;BMP280;69558;39.208;-77.226;2024-01-16T07:30:15;100132.50;;;14.54
80246;BMP280;69558;39.208;-77.226;2024-01-16T07:32:41;100125.34;;;14.56
80246;BMP280;69558;39.208;-77.226;2024-01-16T07:35:07;100117.19;;;14.59
80246;BMP280;69558;39.208;-77.226;2024-01-16T07:37:33;100114.72;;;14.58
80246;BMP280;69558;39.208;-77.226;2024-01-16T07:39:59;100124.19;;;14.59
80246;BMP280;69558;39.208;-77.226;2024-01-16T07:42:25;100107.56;;;14.60
80246;BMP280;69558;39.208;-77.226;2024-01-16T07:44:52;100089.13;;;14.61
80246;BMP280;69558;39.208;-77.226;2024-01-16T07:47:18;100083.72;;;14.63
80246;BMP280;69558;39.208;-77.226;2024-01-16T07:49:44;100079.31;;;14.63
80246;BMP280;69558;39.208;-77.226;2024-01-16T07:52:10;100082.09;;;14.62
80246;BMP280;69558;39.208;-77.226;2024-01-16T07:54:37;100097.09;;;14.60
80246;BMP280;69558;39.208;-77.226;2024-01-16T07:57:04;100088.63;;;14.58
80246;BMP280;69558;39.208;-77.226;2024-01-16T07:59:30;100099.06;;;14.58
80246;BMP280;69558;39.208;-77.226;2024-01-16T08:01:58;100083.72;;;14.47
80246;BMP280;69558;39.208;-77.226;2024-01-16T08:04:23;100098.75;;;14.53
80246;BMP280;69558;39.208;-77.226;2024-01-16T08:06:50;100099.56;;;14.53
80246;BMP280;69558;39.208;-77.226;2024-01-16T08:09:16;100098.88;;;14.51
80246;BMP280;69558;39.208;-77.226;2024-01-16T08:11:42;100095.47;;;14.51
80246;BMP280;69558;39.208;-77.226;2024-01-16T08:14:08;100108.84;;;14.48
80246;BMP280;69558;39.208;-77.226;2024-01-16T08:16:34;100113.09;;;14.49
80246;BMP280;69558;39.208;-77.226;2024-01-16T08:19:00;100103.97;;;14.45
80246;BMP280;69558;39.208;-77.226;2024-01-16T08:21:26;100100.69;;;14.43
80246;BMP280;69558;39.208;-77.226;2024-01-16T08:23:52;100090.25;;;14.43
80246;BMP280;69558;39.208;-77.226;2024-01-16T08:26:18;100078.19;;;14.42
80246;BMP280;69558;39.208;-77.226;2024-01-16T08:28:43;100083.09;;;14.45
80246;BMP280;69558;39.208;-77.226;2024-01-16T08:31:09;100078.84;;;14.44
80246;BMP280;69558;39.208;-77.226;2024-01-16T08:33:35;100086.31;;;14.47
80246;BMP280;69558;39.208;-77.226;2024-01-16T08:36:03;100067.25;;;14.46
80246;BMP280;69558;39.208;-77.226;2024-01-16T08:38:29;100065.97;;;14.50
80246;BMP280;69558;39.208;-77.226;2024-01-16T08:40:55;100049.28;;;14.51
80246;BMP280;69558;39.208;-77.226;2024-01-16T08:43:21;100031.03;;;14.51
80246;BMP280;69558;39.208;-77.226;2024-01-16T08:45:47;100026.81;;;14.50
80246;BMP280;69558;39.208;-77.226;2024-01-16T08:48:13;100027.44;;;14.52
80246;BMP280;69558;39.208;-77.226;2024-01-16T08:50:40;100030.72;;;14.54
80246;BMP280;69558;39.208;-77.226;2024-01-16T08:53:06;100017.69;;;14.54
80246;BMP280;69558;39.208;-77.226;2024-01-16T08:55:32;100005.44;;;14.55
80246;BMP280;69558;39.208;-77.226;2024-01-16T08:57:58;100014.56;;;14.59
80246;BMP280;69558;39.208;-77.226;2024-01-16T09:00:23;99995.47;;;14.58
80246;BMP280;69558;39.208;-77.226;2024-01-16T09:02:49;99960.41;;;14.61
80246;BMP280;69558;39.208;-77.226;2024-01-16T09:05:15;99959.59;;;14.60
80246;BMP280;69558;39.208;-77.226;2024-01-16T09:07:41;99967.25;;;14.62
80246;BMP280;69558;39.208;-77.226;2024-01-16T09:10:08;99972.94;;;14.65
80246;BMP280;69558;39.208;-77.226;2024-01-16T09:12:34;99951.09;;;14.67
80246;BMP280;69558;39.208;-77.226;2024-01-16T09:14:59;99931.69;;;14.61
80246;BMP280;69558;39.208;-77.226;2024-01-16T09:17:25;99944.72;;;14.69
80246;BMP280;69558;39.208;-77.226;2024-01-16T09:19:51;99935.91;;;14.70
80246;BMP280;69558;39.208;-77.226;2024-01-16T09:22:17;99920.22;;;14.70
80246;BMP280;69558;39.208;-77.226;2024-01-16T09:24:43;99909.63;;;14.72
80246;BMP280;69558;39.208;-77.226;2024-01-16T09:27:09;99915.81;;;14.71
80246;BMP280;69558;39.208;-77.226;2024-01-16T09:29:36;99928.75;;;14.72
80246;BMP280;69558;39.208;-77.226;2024-01-16T09:32:02;99920.91;;;14.72
80246;BMP280;69558;39.208;-77.226;2024-01-16T09:34:28;99927.44;;;14.68
80246;BMP280;69558;39.208;-77.226;2024-01-16T09:36:55;99933.63;;;14.67
80246;BMP280;69558;39.208;-77.226;2024-01-16T09:39:24;99925.97;;;14.65
80246;BMP280;69558;39.208;-77.226;2024-01-16T09:41:50;99921.72;;;14.64
80246;BMP280;69558;39.208;-77.226;2024-01-16T09:44:16;99909.81;;;14.62
80246;BMP280;69558;39.208;-77.226;2024-01-16T09:46:44;99900.38;;;14.61
80246;BMP280;69558;39.208;-77.226;2024-01-16T09:49:15;99902.34;;;14.59
80246;BMP280;69558;39.208;-77.226;2024-01-16T09:51:43;99894.66;;;14.57
80246;BMP280;69558;39.208;-77.226;2024-01-16T09:54:08;99882.63;;;14.56
80246;BMP280;69558;39.208;-77.226;2024-01-16T09:56:42;99878.38;;;14.55
80246;BMP280;69558;39.208;-77.226;2024-01-16T09:59:09;99864.00;;;14.51
80246;BMP280;69558;39.208;-77.226;2024-01-16T10:01:38;99868.41;;;14.51
80246;BMP280;69558;39.208;-77.226;2024-01-16T10:04:04;99878.25;;;14.49
80246;BMP280;69558;39.208;-77.226;2024-01-16T10:06:30;99874.16;;;14.46
80246;BMP280;69558;39.208;-77.226;2024-01-16T10:08:58;99861.59;;;14.50
80246;BMP280;69558;39.208;-77.226;2024-01-16T10:11:24;99846.13;;;14.48
80246;BMP280;69558;39.208;-77.226;2024-01-16T10:13:50;99840.91;;;14.48
80246;BMP280;69558;39.208;-77.226;2024-01-16T10:16:16;99848.72;;;14.48
80246;BMP280;69558;39.208;-77.226;2024-01-16T10:18:42;99862.59;;;14.49
80246;BMP280;69558;39.208;-77.226;2024-01-16T10:21:27;99862.41;;;14.50
80246;BMP280;69558;39.208;-77.226;2024-01-16T10:24:10;99870.03;;;14.52
80246;BMP280;69558;39.208;-77.226;2024-01-16T10:26:36;99863.03;;;14.52
80246;BMP280;69558;39.208;-77.226;2024-01-16T10:29:03;99841.03;;;14.55
80246;BMP280;69558;39.208;-77.226;2024-01-16T10:31:30;99827.97;;;14.55
80246;BMP280;69558;39.208;-77.226;2024-01-16T10:33:58;99811.13;;;14.57
80246;BMP280;69558;39.208;-77.226;2024-01-16T10:36:24;99791.09;;;14.58
80246;BMP280;69558;39.208;-77.226;2024-01-16T10:38:51;99783.09;;;14.59
80246;BMP280;69558;39.208;-77.226;2024-01-16T10:41:23;99810.66;;;14.62
80246;BMP280;69558;39.208;-77.226;2024-01-16T10:44:05;99799.56;;;14.60
80246;BMP280;69558;39.208;-77.226;2024-01-16T10:46:35;99807.06;;;14.63
80246;BMP280;69558;39.208;-77.226;2024-01-16T10:49:03;99796.78;;;14.61
80246;BMP280;69558;39.208;-77.226;2024-01-16T10:51:31;99797.25;;;14.65
80246;BMP280;69558;39.208;-77.226;2024-01-16T10:54:03;99794.31;;;14.68
80246;BMP280;69558;39.208;-77.226;2024-01-16T10:56:34;99791.03;;;14.66
80246;BMP280;69558;39.208;-77.226;2024-01-16T10:59:25;99773.25;;;14.70
80246;BMP280;69558;39.208;-77.226;2024-01-16T11:01:55;99760.25;;;14.61
80246;BMP280;69558;39.208;-77.226;2024-01-16T11:04:22;99768.84;;;14.70
80246;BMP280;69558;39.208;-77.226;2024-01-16T11:06:52;99773.88;;;14.72
80246;BMP280;69558;39.208;-77.226;2024-01-16T11:09:20;99774.06;;;14.70
80246;BMP280;69558;39.208;-77.226;2024-01-16T11:11:46;99773.88;;;14.72
80246;BMP280;69558;39.208;-77.226;2024-01-16T11:14:16;99779.78;;;14.74
80246;BMP280;69558;39.208;-77.226;2024-01-16T11:16:42;99785.59;;;14.76
80246;BMP280;69558;39.208;-77.226;2024-01-16T11:19:09;99786.41;;;14.76
80246;BMP280;69558;39.208;-77.226;2024-01-16T11:21:39;99771.72;;;14.75
80246;BMP280;69558;39.208;-77.226;2024-01-16T11:24:05;99782.56;;;14.72
80246;BMP280;69558;39.208;-77.226;2024-01-16T11:26:34;99774.88;;;14.71
80246;BMP280;69558;39.208;-77.226;2024-01-16T11:31:53;99779.63;;;14.67
80246;BMP280;69558;39.208;-77.226;2024-01-16T11:37:11;99790.59;;;14.62
80246;BMP280;69558;39.208;-77.226;2024-01-16T11:39:37;99785.69;;;14.59
80246;BMP280;69558;39.208;-77.226;2024-01-16T11:42:04;99766.75;;;14.57
80246;BMP280;69558;39.208;-77.226;2024-01-16T11:47:06;99738.25;;;14.56
80246;BMP280;69558;39.208;-77.226;2024-01-16T11:49:33;99747.88;;;14.55
80246;BMP280;69558;39.208;-77.226;2024-01-16T11:51:59;99746.25;;;14.54
80246;BMP280;69558;39.208;-77.226;2024-01-16T11:54:25;99740.88;;;14.56
80246;BMP280;69558;39.208;-77.226;2024-01-16T12:00:19;99750.50;;;14.55
80246;BMP280;69558;39.208;-77.226;2024-01-16T12:05:11;99747.06;;;14.55
80246;BMP280;69558;39.208;-77.226;2024-01-16T12:07:50;99747.69;;;14.57
80246;BMP280;69558;39.208;-77.226;2024-01-16T12:10:21;99749.34;;;14.58
80246;BMP280;69558;39.208;-77.226;2024-01-16T12:12:48;99741.34;;;14.59
80246;BMP280;69558;39.208;-77.226;2024-01-16T12:15:19;99734.50;;;14.58
80246;BMP280;69558;39.208;-77.226;2024-01-16T12:17:55;99740.19;;;14.62
80246;BMP280;69558;39.208;-77.226;2024-01-16T12:20:22;99735.13;;;14.60
80246;BMP280;69558;39.208;-77.226;2024-01-16T12:23:00;99728.59;;;14.64
80246;BMP280;69558;39.208;-77.226;2024-01-16T12:25:27;99727.59;;;14.65
80246;BMP280;69558;39.208;-77.226;2024-01-16T12:28:00;99740.47;;;14.67
80246;BMP280;69558;39.208;-77.226;2024-01-16T12:30:34;99731.00;;;14.66
80246;BMP280;69558;39.208;-77.226;2024-01-16T12:33:05;99707.69;;;14.64
80246;BMP280;69558;39.208;-77.226;2024-01-16T12:35:41;99692.75;;;14.58
80246;BMP280;69558;39.208;-77.226;2024-01-16T12:38:08;99691.09;;;14.57
80246;BMP280;69558;39.208;-77.226;2024-01-16T12:40:49;99685.72;;;14.59
80246;BMP280;69558;39.208;-77.226;2024-01-16T12:43:19;99677.44;;;14.55
80246;BMP280;69558;39.208;-77.226;2024-01-16T12:45:45;99685.44;;;14.54
80246;BMP280;69558;39.208;-77.226;2024-01-16T12:48:11;99667.31;;;14.52
80246;BMP280;69558;39.208;-77.226;2024-01-16T12:50:38;99664.28;;;14.49
80246;BMP280;69558;39.208;-77.226;2024-01-16T12:53:10;99656.28;;;14.50
80246;BMP280;69558;39.208;-77.226;2024-01-16T12:55:38;99651.53;;;14.46
80246;BMP280;69558;39.208;-77.226;2024-01-16T13:00:39;99667.69;;;14.49
80246;BMP280;69558;39.208;-77.226;2024-01-16T13:03:06;99658.06;;;14.50
80246;BMP280;69558;39.208;-77.226;2024-01-16T13:05:33;99659.66;;;14.51
80246;BMP280;69558;39.208;-77.226;2024-01-16T13:08:02;99657.72;;;14.53
80246;BMP280;69558;39.208;-77.226;2024-01-16T13:10:28;99651.66;;;14.52
80246;BMP280;69558;39.208;-77.226;2024-01-16T13:13:12;99635.84;;;14.54
80246;BMP280;69558;39.208;-77.226;2024-01-16T13:15:39;99620.63;;;14.57
80246;BMP280;69558;39.208;-77.226;2024-01-16T13:18:06;99614.81;;;14.55
80246;BMP280;69558;39.208;-77.226;2024-01-16T13:20:32;99614.44;;;14.58
80246;BMP280;69558;39.208;-77.226;2024-01-16T13:22:59;99634.50;;;14.58
80246;BMP280;69558;39.208;-77.226;2024-01-16T13:25:25;99654.22;;;14.60
80246;BMP280;69558;39.208;-77.226;2024-01-16T13:27:51;99627.84;;;14.55
80246;BMP280;69558;39.208;-77.226;2024-01-16T13:30:18;99626.97;;;14.63
80246;BMP280;69558;39.208;-77.226;2024-01-16T13:32:44;99638.22;;;14.63
80246;BMP280;69558;39.208;-77.226;2024-01-16T13:35:10;99642.44;;;14.64
80246;BMP280;69558;39.208;-77.226;2024-01-16T13:37:37;99636.25;;;14.65
80246;BMP280;69558;39.208;-77.226;2024-01-16T13:40:05;99634.31;;;14.68
80246;BMP280;69558;39.208;-77.226;2024-01-16T13:42:44;99631.03;;;14.65
80246;BMP280;69558;39.208;-77.226;2024-01-16T13:45:09;99631.03;;;14.65
80246;BMP280;69558;39.208;-77.226;2024-01-16T13:47:39;99650.56;;;14.70
80246;BMP280;69558;39.208;-77.226;2024-01-16T13:50:06;99643.91;;;14.67
80246;BMP280;69558;39.208;-77.226;2024-01-16T13:52:36;99644.22;;;14.72
80246;BMP280;69558;39.208;-77.226;2024-01-16T13:55:03;99640.59;;;14.73